^^
Saratoga-Weather Station Historical Data
Daily Summary for February 16, 2020 Units:  Both    English   Metric
Daily Weekly Monthly Yearly Custom
  High: Low: Average:
Temperature: 50.4 °F /  10.2 °C 42.3 °F /  5.7 °C 45.7 °F /  7.6 °C
Dew Point: 49.6 °F /  9.8 °C 41.5 °F /  5.3 °C 45 °F /  7.2 °C
Humidity: 98% 96% 97%
Wind Speed: 6mph /  9.7km/h - 0.4mph /  0.7km/h
Wind Gust: 9mph /  14.5km/h - -
Wind- - ESE
Pressure: 30 in /  1015.6 hPa 30 in /  1014.2 hPa -
Precipitation: 0.02 in /  0.5 mm    
Historical Graphs
 
 
Tabular Data for February 16, 2020
Time Temperature Dew Point Pressure Wind Wind Speed Wind Gust Humidity Rainfall Rate (Hourly) solar
00:03 42.6 °F /  5.9 °C 41.9 °F /  5.5 °C 30in /  1015.2hPa WSW 0.9mph /  1.4km/h 1mph /  1.6km/h 97% 0in /  0.0mm 0 W/m2
00:08 42.6 °F /  5.9 °C 41.9 °F /  5.5 °C 30in /  1015.2hPa Calm     97% 0in /  0.0mm 0 W/m2
00:13 42.6 °F /  5.9 °C 41.9 °F /  5.5 °C 30in /  1015.2hPa WSW 0.9mph /  1.4km/h 1mph /  1.6km/h 97% 0in /  0.0mm 0 W/m2
00:18 42.4 °F /  5.8 °C 41.7 °F /  5.4 °C 30in /  1015.2hPa Calm     97% 0in /  0.0mm 0 W/m2
00:23 42.4 °F /  5.8 °C 41.7 °F /  5.4 °C 30in /  1015.2hPa Calm     97% 0in /  0.0mm 0 W/m2
00:28 42.3 °F /  5.7 °C 41.5 °F /  5.3 °C 30in /  1015.2hPa Calm   1mph /  1.6km/h 97% 0in /  0.0mm 0 W/m2
00:33 42.3 °F /  5.7 °C 41.5 °F /  5.3 °C 30in /  1015.2hPa WSW 0.9mph /  1.4km/h 1mph /  1.6km/h 97% 0in /  0.0mm 0 W/m2
00:38 42.3 °F /  5.7 °C 41.5 °F /  5.3 °C 30in /  1015.2hPa WSW 0.9mph /  1.4km/h 2mph /  3.2km/h 97% 0in /  0.0mm 0 W/m2
00:43 42.4 °F /  5.8 °C 41.7 °F /  5.4 °C 30in /  1015.2hPa Calm     97% 0in /  0.0mm 0 W/m2
00:48 42.4 °F /  5.8 °C 41.7 °F /  5.4 °C 30in /  1015.2hPa Calm     97% 0in /  0.0mm 0 W/m2
00:53 42.6 °F /  5.9 °C 41.9 °F /  5.5 °C 30in /  1015.2hPa Calm     97% 0in /  0.0mm 0 W/m2
00:58 42.6 °F /  5.9 °C 41.9 °F /  5.5 °C 30in /  1015.2hPa Calm     97% 0in /  0.0mm 0 W/m2
01:03 42.6 °F /  5.9 °C 41.9 °F /  5.5 °C 30in /  1015.2hPa Calm   2mph /  3.2km/h 97% 0in /  0.0mm 0 W/m2
01:08 42.6 °F /  5.9 °C 41.9 °F /  5.5 °C 30in /  1015.2hPa Calm   2mph /  3.2km/h 97% 0in /  0.0mm 0 W/m2
01:13 42.6 °F /  5.9 °C 41.9 °F /  5.5 °C 30in /  1015.2hPa WSW 0.9mph /  1.4km/h 2mph /  3.2km/h 97% 0in /  0.0mm 0 W/m2
01:18 42.6 °F /  5.9 °C 41.9 °F /  5.5 °C 30in /  1015.2hPa Calm     97% 0in /  0.0mm 0 W/m2
01:23 42.8 °F /  6 °C 42.1 °F /  5.6 °C 30in /  1015.2hPa Calm   2mph /  3.2km/h 97% 0in /  0.0mm 0 W/m2
01:28 42.8 °F /  6 °C 42.1 °F /  5.6 °C 30in /  1015.2hPa Calm     97% 0in /  0.0mm 0 W/m2
01:33 42.6 °F /  5.9 °C 41.9 °F /  5.5 °C 30in /  1015.2hPa Calm     97% 0in /  0.0mm 0 W/m2
01:38 42.8 °F /  6 °C 42.1 °F /  5.6 °C 30in /  1015.2hPa Calm     97% 0in /  0.0mm 0 W/m2
01:43 43 °F /  6.1 °C 42.3 °F /  5.7 °C 30in /  1015.2hPa Calm     97% 0in /  0.0mm 0 W/m2
01:49 43 °F /  6.1 °C 42.3 °F /  5.7 °C 30in /  1015.2hPa Calm     97% 0in /  0.0mm 0 W/m2
01:54 43 °F /  6.1 °C 42.3 °F /  5.7 °C 30in /  1015.2hPa Calm     97% 0in /  0.0mm 0 W/m2
01:59 43 °F /  6.1 °C 42.3 °F /  5.7 °C 30in /  1015.2hPa Calm     97% 0in /  0.0mm 0 W/m2
02:04 43 °F /  6.1 °C 42.3 °F /  5.7 °C 30in /  1015.6hPa Calm     97% 0in /  0.0mm 0 W/m2
02:09 43 °F /  6.1 °C 42.3 °F /  5.7 °C 30in /  1015.6hPa Calm     97% 0in /  0.0mm 0 W/m2
02:14 43.2 °F /  6.2 °C 42.4 °F /  5.8 °C 30in /  1015.6hPa Calm     97% 0in /  0.0mm 0 W/m2
02:19 43.2 °F /  6.2 °C 42.4 °F /  5.8 °C 30in /  1015.2hPa Calm     97% 0in /  0.0mm 0 W/m2
02:24 43.2 °F /  6.2 °C 42.6 °F /  5.9 °C 30in /  1015.2hPa Calm     98% 0in /  0.0mm 0 W/m2
02:29 43.3 °F /  6.3 °C 42.8 °F /  6 °C 30in /  1015.6hPa Calm     98% 0in /  0.0mm 0 W/m2
02:34 43.5 °F /  6.4 °C 43 °F /  6.1 °C 30in /  1015.6hPa Calm     98% 0in /  0.0mm 0 W/m2
02:39 43.5 °F /  6.4 °C 43 °F /  6.1 °C 30in /  1015.6hPa Calm     98% 0in /  0.0mm 0 W/m2
02:44 43.7 °F /  6.5 °C 43.2 °F /  6.2 °C 30in /  1015.6hPa Calm     98% 0in /  0.0mm 0 W/m2
02:49 43.9 °F /  6.6 °C 43.3 °F /  6.3 °C 30in /  1015.6hPa Calm     98% 0in /  0.0mm 0 W/m2
02:54 44.1 °F /  6.7 °C 43.5 °F /  6.4 °C 30in /  1015.6hPa Calm     98% 0in /  0.0mm 0 W/m2
02:59 44.1 °F /  6.7 °C 43.5 °F /  6.4 °C 30in /  1015.6hPa Calm     98% 0in /  0.0mm 0 W/m2
03:04 44.1 °F /  6.7 °C 43.5 °F /  6.4 °C 30in /  1015.6hPa Calm     98% 0in /  0.0mm 0 W/m2
03:09 44.1 °F /  6.7 °C 43.5 °F /  6.4 °C 30in /  1015.6hPa Calm     98% 0in /  0.0mm 0 W/m2
03:14 44.1 °F /  6.7 °C 43.5 °F /  6.4 °C 30in /  1015.6hPa Calm     98% 0in /  0.0mm 0 W/m2
03:19 44.2 °F /  6.8 °C 43.7 °F /  6.5 °C 30in /  1015.6hPa Calm     98% 0in /  0.0mm 0 W/m2
03:24 44.1 °F /  6.7 °C 43.5 °F /  6.4 °C 30in /  1015.6hPa Calm     98% 0in /  0.0mm 0 W/m2
03:29 44.1 °F /  6.7 °C 43.5 °F /  6.4 °C 30in /  1015.6hPa Calm     98% 0in /  0.0mm 0 W/m2
03:34 44.1 °F /  6.7 °C 43.5 °F /  6.4 °C 30in /  1015.6hPa Calm     98% 0in /  0.0mm 0 W/m2
03:39 44.1 °F /  6.7 °C 43.5 °F /  6.4 °C 30in /  1015.6hPa Calm     98% 0in /  0.0mm 0 W/m2
03:44 44.2 °F /  6.8 °C 43.7 °F /  6.5 °C 30in /  1015.6hPa Calm     98% 0in /  0.0mm 0 W/m2
03:49 44.2 °F /  6.8 °C 43.7 °F /  6.5 °C 30in /  1015.6hPa Calm     98% 0in /  0.0mm 0 W/m2
03:54 44.2 °F /  6.8 °C 43.7 °F /  6.5 °C 30in /  1015.6hPa Calm     98% 0in /  0.0mm 0 W/m2
03:59 44.2 °F /  6.8 °C 43.7 °F /  6.5 °C 30in /  1015.6hPa Calm     98% 0in /  0.0mm 0 W/m2
04:04 44.4 °F /  6.9 °C 43.9 °F /  6.6 °C 30in /  1015.6hPa WSW 0.9mph /  1.4km/h 1mph /  1.6km/h 98% 0in /  0.0mm 0 W/m2
04:09 44.4 °F /  6.9 °C 43.9 °F /  6.6 °C 30in /  1015.2hPa Calm   2mph /  3.2km/h 98% 0in /  0.0mm 0 W/m2
04:14 44.4 °F /  6.9 °C 43.9 °F /  6.6 °C 30in /  1015.2hPa Calm   1mph /  1.6km/h 98% 0in /  0.0mm 0 W/m2
04:19 44.4 °F /  6.9 °C 43.9 °F /  6.6 °C 30in /  1015.2hPa WSW 0.9mph /  1.4km/h 2mph /  3.2km/h 98% 0in /  0.0mm 0 W/m2
04:24 44.4 °F /  6.9 °C 43.9 °F /  6.6 °C 30in /  1015.2hPa ESE 2mph /  3.2km/h 2mph /  3.2km/h 98% 0in /  0.0mm 0 W/m2
04:29 44.4 °F /  6.9 °C 43.9 °F /  6.6 °C 30in /  1015.2hPa ESE 0.9mph /  1.4km/h 2mph /  3.2km/h 98% 0.01in /  0.2mm 0 W/m2
04:34 44.4 °F /  6.9 °C 43.9 °F /  6.6 °C 30in /  1015.2hPa ESE 0.9mph /  1.4km/h 1mph /  1.6km/h 98% 0.01in /  0.2mm 0 W/m2
04:39 44.4 °F /  6.9 °C 43.9 °F /  6.6 °C 30in /  1015.2hPa ESE 0.9mph /  1.4km/h 2mph /  3.2km/h 98% 0.01in /  0.2mm 0 W/m2
04:44 44.4 °F /  6.9 °C 43.9 °F /  6.6 °C 30in /  1015.2hPa Calm   2mph /  3.2km/h 98% 0.01in /  0.2mm 0 W/m2
04:49 44.4 °F /  6.9 °C 43.9 °F /  6.6 °C 30in /  1015.2hPa Calm   1mph /  1.6km/h 98% 0.01in /  0.2mm 0 W/m2
04:54 44.4 °F /  6.9 °C 43.9 °F /  6.6 °C 30in /  1015.2hPa SE 0.9mph /  1.4km/h 2mph /  3.2km/h 98% 0.01in /  0.2mm 0 W/m2
04:59 44.4 °F /  6.9 °C 43.9 °F /  6.6 °C 30in /  1015.2hPa Calm   1mph /  1.6km/h 98% 0.01in /  0.2mm 0 W/m2
05:04 44.6 °F /  7 °C 44.1 °F /  6.7 °C 30in /  1015.2hPa Calm   2mph /  3.2km/h 98% 0.01in /  0.2mm 0 W/m2
05:09 44.6 °F /  7 °C 44.1 °F /  6.7 °C 30in /  1015.2hPa Calm     98% 0.01in /  0.2mm 0 W/m2
05:14 44.6 °F /  7 °C 44.1 °F /  6.7 °C 30in /  1015.2hPa Calm   2mph /  3.2km/h 98% 0.01in /  0.2mm 0 W/m2
05:19 44.6 °F /  7 °C 44.1 °F /  6.7 °C 30in /  1015.2hPa Calm     98% 0.01in /  0.2mm 0 W/m2
05:24 44.6 °F /  7 °C 44.1 °F /  6.7 °C 30in /  1015.6hPa Calm     98% 0.01in /  0.2mm 0 W/m2
05:29 44.6 °F /  7 °C 44.1 °F /  6.7 °C 30in /  1015.6hPa ESE 0.9mph /  1.4km/h 1mph /  1.6km/h 98% 0in /  0.0mm 0 W/m2
05:34 44.8 °F /  7.1 °C 44.2 °F /  6.8 °C 30in /  1015.6hPa ESE 0.9mph /  1.4km/h 1mph /  1.6km/h 98% 0in /  0.0mm 0 W/m2
05:39 44.8 °F /  7.1 °C 44.2 °F /  6.8 °C 30in /  1015.6hPa Calm     98% 0in /  0.0mm 0 W/m2
05:44 44.8 °F /  7.1 °C 44.2 °F /  6.8 °C 30in /  1015.6hPa Calm     98% 0in /  0.0mm 0 W/m2
05:49 44.8 °F /  7.1 °C 44.2 °F /  6.8 °C 30in /  1015.6hPa Calm     98% 0in /  0.0mm 0 W/m2
05:54 44.8 °F /  7.1 °C 44.2 °F /  6.8 °C 30in /  1015.6hPa Calm     98% 0in /  0.0mm 0 W/m2
05:59 44.8 °F /  7.1 °C 44.2 °F /  6.8 °C 30in /  1015.6hPa Calm     98% 0in /  0.0mm 0 W/m2
06:04 44.8 °F /  7.1 °C 44.2 °F /  6.8 °C 30in /  1015.6hPa NE 0.9mph /  1.4km/h 2mph /  3.2km/h 98% 0in /  0.0mm 0 W/m2
06:09 45 °F /  7.2 °C 44.4 °F /  6.9 °C 30in /  1015.6hPa Calm   2mph /  3.2km/h 98% 0in /  0.0mm 0 W/m2
06:14 45 °F /  7.2 °C 44.4 °F /  6.9 °C 30in /  1015.6hPa Calm     98% 0in /  0.0mm 0 W/m2
06:19 45 °F /  7.2 °C 44.4 °F /  6.9 °C 30in /  1015.6hPa Calm   1mph /  1.6km/h 98% 0in /  0.0mm 0 W/m2
06:24 45 °F /  7.2 °C 44.4 °F /  6.9 °C 30in /  1015.6hPa Calm     98% 0in /  0.0mm 0 W/m2
06:29 45 °F /  7.2 °C 44.4 °F /  6.9 °C 30in /  1015.6hPa Calm     98% 0in /  0.0mm 0 W/m2
06:34 45 °F /  7.2 °C 44.4 °F /  6.9 °C 30in /  1015.6hPa Calm     98% 0in /  0.0mm 0 W/m2
06:39 45 °F /  7.2 °C 44.4 °F /  6.9 °C 30in /  1015.6hPa Calm   1mph /  1.6km/h 98% 0in /  0.0mm 0 W/m2
06:44 45 °F /  7.2 °C 44.4 °F /  6.9 °C 30in /  1015.6hPa Calm     98% 0in /  0.0mm 0 W/m2
07:01 45 °F /  7.2 °C 44.4 °F /  6.9 °C 30in /  1015.6hPa Calm     98% 0in /  0.0mm 0 W/m2
07:06 45 °F /  7.2 °C 44.4 °F /  6.9 °C 30in /  1015.2hPa Calm     98% 0in /  0.0mm 0 W/m2
07:11 45 °F /  7.2 °C 44.4 °F /  6.9 °C 30in /  1015.6hPa Calm     98% 0in /  0.0mm 0 W/m2
07:16 45 °F /  7.2 °C 44.4 °F /  6.9 °C 30in /  1015.6hPa Calm     98% 0in /  0.0mm 0 W/m2
07:21 45 °F /  7.2 °C 44.4 °F /  6.9 °C 30in /  1015.6hPa Calm     98% 0in /  0.0mm 0 W/m2
07:26 45 °F /  7.2 °C 44.4 °F /  6.9 °C 30in /  1015.6hPa Calm     98% 0in /  0.0mm 0 W/m2
07:31 45 °F /  7.2 °C 44.4 °F /  6.9 °C 30in /  1015.6hPa Calm     98% 0in /  0.0mm 0 W/m2
07:36 45.1 °F /  7.3 °C 44.6 °F /  7 °C 30in /  1015.6hPa Calm     98% 0in /  0.0mm 0 W/m2
07:42 45 °F /  7.2 °C 44.4 °F /  6.9 °C 30in /  1015.6hPa Calm     98% 0in /  0.0mm 0 W/m2
07:47 45 °F /  7.2 °C 44.4 °F /  6.9 °C 30in /  1015.6hPa Calm     98% 0in /  0.0mm 0 W/m2
07:52 45.1 °F /  7.3 °C 44.6 °F /  7 °C 30in /  1015.6hPa Calm     98% 0in /  0.0mm 0 W/m2
07:57 45.1 °F /  7.3 °C 44.6 °F /  7 °C 30in /  1015.6hPa Calm     98% 0in /  0.0mm 0 W/m2
08:16 45.1 °F /  7.3 °C 44.6 °F /  7 °C 30in /  1015.6hPa Calm     98% 0in /  0.0mm 0 W/m2
08:21 45.1 °F /  7.3 °C 44.6 °F /  7 °C 30in /  1015.6hPa Calm     98% 0in /  0.0mm 0 W/m2
08:26 45.1 °F /  7.3 °C 44.6 °F /  7 °C 30in /  1015.6hPa Calm     98% 0in /  0.0mm 0 W/m2
08:31 45.1 °F /  7.3 °C 44.6 °F /  7 °C 30in /  1015.6hPa Calm     98% 0in /  0.0mm 0 W/m2
08:36 45.1 °F /  7.3 °C 44.6 °F /  7 °C 30in /  1015.6hPa Calm     98% 0in /  0.0mm 0 W/m2
08:41 45.1 °F /  7.3 °C 44.6 °F /  7 °C 30in /  1015.6hPa Calm     98% 0in /  0.0mm 0 W/m2
08:46 45.1 °F /  7.3 °C 44.6 °F /  7 °C 30in /  1015.6hPa Calm     98% 0in /  0.0mm 0 W/m2
08:51 45.1 °F /  7.3 °C 44.6 °F /  7 °C 30in /  1015.6hPa Calm     98% 0in /  0.0mm 0 W/m2
08:56 45.1 °F /  7.3 °C 44.6 °F /  7 °C 30in /  1015.6hPa Calm     98% 0in /  0.0mm 5 W/m2
09:01 45.3 °F /  7.4 °C 44.8 °F /  7.1 °C 30in /  1015.6hPa Calm     98% 0in /  0.0mm 7 W/m2
09:06 45.3 °F /  7.4 °C 44.8 °F /  7.1 °C 30in /  1015.6hPa Calm     98% 0in /  0.0mm 9 W/m2
09:11 45.3 °F /  7.4 °C 44.8 °F /  7.1 °C 30in /  1015.6hPa Calm     98% 0in /  0.0mm 11 W/m2
09:16 45.3 °F /  7.4 °C 44.8 °F /  7.1 °C 30in /  1015.6hPa Calm     98% 0in /  0.0mm 9 W/m2
09:21 45.5 °F /  7.5 °C 45 °F /  7.2 °C 30in /  1015.6hPa Calm     98% 0in /  0.0mm 16 W/m2
09:26 45.7 °F /  7.6 °C 45.1 °F /  7.3 °C 30in /  1015.6hPa Calm     98% 0in /  0.0mm 16 W/m2
09:31 45.7 °F /  7.6 °C 45.1 °F /  7.3 °C 30in /  1015.6hPa Calm     98% 0in /  0.0mm 23 W/m2
09:36 45.7 °F /  7.6 °C 45.1 °F /  7.3 °C 30in /  1015.6hPa Calm     98% 0in /  0.0mm 23 W/m2
09:41 45.9 °F /  7.7 °C 45.3 °F /  7.4 °C 30in /  1015.6hPa Calm     98% 0in /  0.0mm 25 W/m2
09:46 45.9 °F /  7.7 °C 45.3 °F /  7.4 °C 30in /  1015.6hPa Calm     98% 0in /  0.0mm 37 W/m2
09:51 46 °F /  7.8 °C 45.5 °F /  7.5 °C 30in /  1015.6hPa Calm     98% 0in /  0.0mm 35 W/m2
09:56 46 °F /  7.8 °C 45.5 °F /  7.5 °C 30in /  1015.6hPa Calm     98% 0in /  0.0mm 35 W/m2
10:01 46.2 °F /  7.9 °C 45.7 °F /  7.6 °C 30in /  1015.6hPa Calm     98% 0in /  0.0mm 37 W/m2
10:06 46.2 °F /  7.9 °C 45.7 °F /  7.6 °C 30in /  1015.6hPa Calm     98% 0in /  0.0mm 28 W/m2
10:11 46.4 °F /  8 °C 45.9 °F /  7.7 °C 30in /  1015.6hPa Calm     98% 0in /  0.0mm 21 W/m2
10:16 46.6 °F /  8.1 °C 46 °F /  7.8 °C 30in /  1015.6hPa Calm   3mph /  4.8km/h 98% 0in /  0.0mm 18 W/m2
10:21 46.8 °F /  8.2 °C 46.2 °F /  7.9 °C 30in /  1015.6hPa ESE 2.9mph /  4.7km/h 4mph /  6.4km/h 98% 0in /  0.0mm 23 W/m2
10:26 46.9 °F /  8.3 °C 46.4 °F /  8 °C 30in /  1015.6hPa NE 2mph /  3.2km/h 4mph /  6.4km/h 98% 0in /  0.0mm 25 W/m2
10:31 46.9 °F /  8.3 °C 46.4 °F /  8 °C 30in /  1015.6hPa ENE 2mph /  3.2km/h 4mph /  6.4km/h 98% 0in /  0.0mm 23 W/m2
10:36 46.9 °F /  8.3 °C 46.4 °F /  8 °C 30in /  1015.6hPa East 2.9mph /  4.7km/h 3mph /  4.8km/h 98% 0in /  0.0mm 26 W/m2
10:41 47.1 °F /  8.4 °C 46.6 °F /  8.1 °C 30in /  1015.6hPa ESE 0.9mph /  1.4km/h 4mph /  6.4km/h 98% 0in /  0.0mm 26 W/m2
10:46 47.1 °F /  8.4 °C 46.6 °F /  8.1 °C 30in /  1015.6hPa East 0.9mph /  1.4km/h 3mph /  4.8km/h 98% 0in /  0.0mm 32 W/m2
10:51 47.3 °F /  8.5 °C 46.8 °F /  8.2 °C 30in /  1015.6hPa Calm   2mph /  3.2km/h 98% 0in /  0.0mm 21 W/m2
10:56 47.5 °F /  8.6 °C 46.9 °F /  8.3 °C 30in /  1015.6hPa East 2mph /  3.2km/h 5mph /  8km/h 98% 0.01in /  0.2mm 26 W/m2
11:01 47.5 °F /  8.6 °C 46.9 °F /  8.3 °C 30in /  1015.6hPa East 4mph /  6.4km/h 4mph /  6.4km/h 98% 0.01in /  0.2mm 30 W/m2
11:06 47.5 °F /  8.6 °C 46.9 °F /  8.3 °C 30in /  1015.6hPa East 2mph /  3.2km/h 3mph /  4.8km/h 98% 0.01in /  0.2mm 42 W/m2
11:11 47.7 °F /  8.7 °C 47.1 °F /  8.4 °C 30in /  1015.6hPa East 0.9mph /  1.4km/h 3mph /  4.8km/h 98% 0.01in /  0.2mm 39 W/m2
11:16 47.7 °F /  8.7 °C 47.1 °F /  8.4 °C 30in /  1015.6hPa Calm   3mph /  4.8km/h 98% 0.01in /  0.2mm 30 W/m2
11:21 47.7 °F /  8.7 °C 47.1 °F /  8.4 °C 30in /  1015.6hPa Calm   2mph /  3.2km/h 98% 0.01in /  0.2mm 23 W/m2
11:41 47.8 °F /  8.8 °C 47.3 °F /  8.5 °C 30in /  1015.6hPa East 2mph /  3.2km/h 3mph /  4.8km/h 98% 0.01in /  0.2mm 40 W/m2
11:46 48 °F /  8.9 °C 47.5 °F /  8.6 °C 30in /  1015.6hPa ENE 0.9mph /  1.4km/h 4mph /  6.4km/h 98% 0.01in /  0.2mm 51 W/m2
11:51 48 °F /  8.9 °C 47.5 °F /  8.6 °C 30in /  1015.2hPa NE 2mph /  3.2km/h 8mph /  12.9km/h 98% 0.01in /  0.2mm 72 W/m2
11:56 48 °F /  8.9 °C 47.5 °F /  8.6 °C 30in /  1015.2hPa East 2mph /  3.2km/h 4mph /  6.4km/h 98% 0in /  0.0mm 47 W/m2
12:01 48.2 °F /  9 °C 47.7 °F /  8.7 °C 30in /  1015.2hPa ESE 2.9mph /  4.7km/h 8mph /  12.9km/h 98% 0in /  0.0mm 74 W/m2
12:06 48.4 °F /  9.1 °C 47.8 °F /  8.8 °C 30in /  1015.2hPa East 2mph /  3.2km/h 4mph /  6.4km/h 98% 0in /  0.0mm 83 W/m2
12:11 48.4 °F /  9.1 °C 47.8 °F /  8.8 °C 30in /  1015.2hPa ESE 2.9mph /  4.7km/h 4mph /  6.4km/h 98% 0in /  0.0mm 58 W/m2
12:16 48.6 °F /  9.2 °C 48 °F /  8.9 °C 30in /  1015.2hPa East 2mph /  3.2km/h 4mph /  6.4km/h 98% 0in /  0.0mm 46 W/m2
12:21 48.6 °F /  9.2 °C 48 °F /  8.9 °C 30in /  1015.2hPa ESE 2mph /  3.2km/h 7mph /  11.3km/h 98% 0in /  0.0mm 70 W/m2
12:26 48.6 °F /  9.2 °C 48 °F /  8.9 °C 30in /  1015.2hPa East 2.9mph /  4.7km/h 3mph /  4.8km/h 98% 0in /  0.0mm 58 W/m2
12:31 48.7 °F /  9.3 °C 48.2 °F /  9 °C 30in /  1015.2hPa ESE 2mph /  3.2km/h 7mph /  11.3km/h 98% 0in /  0.0mm 76 W/m2
12:36 48.7 °F /  9.3 °C 48.2 °F /  9 °C 30in /  1015.2hPa East 4mph /  6.4km/h 4mph /  6.4km/h 98% 0in /  0.0mm 95 W/m2
12:45 48.7 °F /  9.3 °C 48.2 °F /  9 °C 30in /  1014.9hPa ENE 2mph /  3.2km/h 4mph /  6.4km/h 98% 0in /  0.0mm 107 W/m2
12:50 49.1 °F /  9.5 °C 48.6 °F /  9.2 °C 30in /  1014.9hPa ESE 2mph /  3.2km/h 6mph /  9.7km/h 98% 0in /  0.0mm 105 W/m2
12:55 49.3 °F /  9.6 °C 48.7 °F /  9.3 °C 30in /  1014.9hPa ESE 2mph /  3.2km/h 4mph /  6.4km/h 98% 0in /  0.0mm 156 W/m2
13:00 49.5 °F /  9.7 °C 48.9 °F /  9.4 °C 30in /  1014.6hPa ESE 2.9mph /  4.7km/h 5mph /  8km/h 98% 0in /  0.0mm 130 W/m2
13:05 49.6 °F /  9.8 °C 49.1 °F /  9.5 °C 30in /  1014.9hPa ENE 0.9mph /  1.4km/h 4mph /  6.4km/h 98% 0in /  0.0mm 120 W/m2
13:10 49.6 °F /  9.8 °C 49.1 °F /  9.5 °C 30in /  1014.6hPa East 0.9mph /  1.4km/h 5mph /  8km/h 98% 0in /  0.0mm 113 W/m2
13:15 49.8 °F /  9.9 °C 49.3 °F /  9.6 °C 30in /  1014.6hPa ENE 2mph /  3.2km/h 6mph /  9.7km/h 98% 0in /  0.0mm 95 W/m2
13:20 49.8 °F /  9.9 °C 49.3 °F /  9.6 °C 30in /  1014.6hPa East 6mph /  9.7km/h 7mph /  11.3km/h 98% 0in /  0.0mm 93 W/m2
13:25 50 °F /  10 °C 49.5 °F /  9.7 °C 30in /  1014.6hPa East 6mph /  9.7km/h 6mph /  9.7km/h 98% 0in /  0.0mm 69 W/m2
13:30 50.2 °F /  10.1 °C 49.6 °F /  9.8 °C 30in /  1014.6hPa ESE 2.9mph /  4.7km/h 9mph /  14.5km/h 98% 0in /  0.0mm 67 W/m2
13:35 50.2 °F /  10.1 °C 49.3 °F /  9.6 °C 30in /  1014.6hPa NE 2.9mph /  4.7km/h 5mph /  8km/h 97% 0in /  0.0mm 70 W/m2
13:40 50.4 °F /  10.2 °C 49.5 °F /  9.7 °C 30in /  1014.6hPa NNE 2mph /  3.2km/h 9mph /  14.5km/h 97% 0in /  0.0mm 77 W/m2
13:45 50.4 °F /  10.2 °C 49.5 °F /  9.7 °C 30in /  1014.6hPa East 2mph /  3.2km/h 4mph /  6.4km/h 97% 0in /  0.0mm 81 W/m2
13:50 50.4 °F /  10.2 °C 49.5 °F /  9.7 °C 30in /  1014.6hPa East 0.9mph /  1.4km/h 2mph /  3.2km/h 97% 0in /  0.0mm 65 W/m2
13:55 50.4 °F /  10.2 °C 49.5 °F /  9.7 °C 30in /  1014.6hPa ESE 2mph /  3.2km/h 2mph /  3.2km/h 97% 0in /  0.0mm 63 W/m2
14:01 50.4 °F /  10.2 °C 49.5 °F /  9.7 °C 30in /  1014.6hPa ENE 2.9mph /  4.7km/h 4mph /  6.4km/h 97% 0in /  0.0mm 63 W/m2
14:18 50.4 °F /  10.2 °C 49.3 °F /  9.6 °C 30in /  1014.6hPa Calm   1mph /  1.6km/h 96% 0in /  0.0mm 67 W/m2
14:23 50.4 °F /  10.2 °C 49.3 °F /  9.6 °C 30in /  1014.6hPa Calm     96% 0in /  0.0mm 70 W/m2
14:28 50.4 °F /  10.2 °C 49.3 °F /  9.6 °C 30in /  1014.6hPa Calm     96% 0in /  0.0mm 79 W/m2
14:33 50.4 °F /  10.2 °C 49.3 °F /  9.6 °C 30in /  1014.2hPa East 0.9mph /  1.4km/h 2mph /  3.2km/h 96% 0in /  0.0mm 74 W/m2
14:38 50.4 °F /  10.2 °C 49.3 °F /  9.6 °C 30in /  1014.2hPa Calm     96% 0in /  0.0mm 69 W/m2
14:56 50.4 °F /  10.2 °C 49.3 °F /  9.6 °C 30in /  1014.2hPa Calm   3mph /  4.8km/h 96% 0in /  0.0mm 58 W/m2
15:01 50.4 °F /  10.2 °C 49.3 °F /  9.6 °C 30in /  1014.2hPa Calm     96% 0in /  0.0mm 46 W/m2
15:06 50.4 °F /  10.2 °C 49.3 °F /  9.6 °C 30in /  1014.2hPa Calm   1mph /  1.6km/h 96% 0in /  0.0mm 32 W/m2
15:11 50.4 °F /  10.2 °C 49.3 °F /  9.6 °C 30in /  1014.6hPa Calm   1mph /  1.6km/h 96% 0in /  0.0mm 26 W/m2
15:16 50.4 °F /  10.2 °C 49.3 °F /  9.6 °C 30in /  1014.6hPa Calm     96% 0in /  0.0mm 25 W/m2
15:21 50.4 °F /  10.2 °C 49.3 °F /  9.6 °C 30in /  1014.6hPa Calm     96% 0in /  0.0mm 23 W/m2
15:26 50.4 °F /  10.2 °C 49.3 °F /  9.6 °C 30in /  1014.6hPa Calm     96% 0in /  0.0mm 25 W/m2
15:31 50.4 °F /  10.2 °C 49.3 °F /  9.6 °C 30in /  1014.6hPa Calm     96% 0in /  0.0mm 33 W/m2
15:36 50.4 °F /  10.2 °C 49.3 °F /  9.6 °C 30in /  1014.2hPa Calm     96% 0in /  0.0mm 37 W/m2
15:41 50.4 °F /  10.2 °C 49.3 °F /  9.6 °C 30in /  1014.2hPa Calm   1mph /  1.6km/h 96% 0in /  0.0mm 37 W/m2
15:46 50.4 °F /  10.2 °C 49.3 °F /  9.6 °C 30in /  1014.2hPa Calm     96% 0in /  0.0mm 35 W/m2
15:51 50.2 °F /  10.1 °C 49.1 °F /  9.5 °C 30in /  1014.2hPa Calm   2mph /  3.2km/h 96% 0in /  0.0mm 28 W/m2
16:07 49.8 °F /  9.9 °C 48.7 °F /  9.3 °C 30in /  1014.2hPa Calm     96% 0in /  0.0mm 14 W/m2
16:12 49.6 °F /  9.8 °C 48.6 °F /  9.2 °C 30in /  1014.2hPa Calm     96% 0in /  0.0mm 14 W/m2
16:17 49.6 °F /  9.8 °C 48.6 °F /  9.2 °C 30in /  1014.2hPa Calm     96% 0in /  0.0mm 11 W/m2
16:22 49.5 °F /  9.7 °C 48.4 °F /  9.1 °C 30in /  1014.2hPa Calm     96% 0in /  0.0mm 9 W/m2
16:27 49.3 °F /  9.6 °C 48.2 °F /  9 °C 30in /  1014.2hPa East 0.9mph /  1.4km/h 2mph /  3.2km/h 96% 0in /  0.0mm 5 W/m2
16:32 48.9 °F /  9.4 °C 47.8 °F /  8.8 °C 30in /  1014.2hPa Calm     96% 0in /  0.0mm 0 W/m2
16:37 48.7 °F /  9.3 °C 47.7 °F /  8.7 °C 30in /  1014.6hPa East 2mph /  3.2km/h 2mph /  3.2km/h 96% 0in /  0.0mm 0 W/m2
16:42 48.6 °F /  9.2 °C 47.5 °F /  8.6 °C 30in /  1014.6hPa Calm     96% 0in /  0.0mm 0 W/m2
16:47 48.2 °F /  9 °C 47.1 °F /  8.4 °C 30in /  1014.6hPa Calm     96% 0in /  0.0mm 0 W/m2
17:07 47.5 °F /  8.6 °C 46.4 °F /  8 °C 30in /  1014.6hPa Calm     96% 0in /  0.0mm 0 W/m2
17:12 47.5 °F /  8.6 °C 46.4 °F /  8 °C 30in /  1014.6hPa Calm     96% 0in /  0.0mm 0 W/m2
17:17 47.3 °F /  8.5 °C 46.2 °F /  7.9 °C 30in /  1014.6hPa Calm     96% 0in /  0.0mm 0 W/m2
17:22 47.1 °F /  8.4 °C 46 °F /  7.8 °C 30in /  1014.6hPa Calm     96% 0in /  0.0mm 0 W/m2
17:27 47.1 °F /  8.4 °C 46 °F /  7.8 °C 30in /  1014.6hPa Calm     96% 0in /  0.0mm 0 W/m2
17:32 47.1 °F /  8.4 °C 46 °F /  7.8 °C 30in /  1014.6hPa Calm     96% 0in /  0.0mm 0 W/m2
17:51 46.9 °F /  8.3 °C 46.2 °F /  7.9 °C 30in /  1014.6hPa Calm     97% 0in /  0.0mm 0 W/m2
17:56 46.8 °F /  8.2 °C 45.7 °F /  7.6 °C 30in /  1014.6hPa Calm     96% 0in /  0.0mm 0 W/m2
18:01 46.8 °F /  8.2 °C 45.7 °F /  7.6 °C 30in /  1014.6hPa Calm     96% 0in /  0.0mm 0 W/m2
18:07 46.6 °F /  8.1 °C 45.5 °F /  7.5 °C 30in /  1014.9hPa Calm     96% 0in /  0.0mm 0 W/m2
18:12 46.6 °F /  8.1 °C 45.9 °F /  7.7 °C 30in /  1014.9hPa Calm     97% 0in /  0.0mm 0 W/m2
18:17 46.4 °F /  8 °C 45.7 °F /  7.6 °C 30in /  1014.9hPa Calm     97% 0in /  0.0mm 0 W/m2
18:22 46.2 °F /  7.9 °C 45.5 °F /  7.5 °C 30in /  1014.9hPa Calm     97% 0in /  0.0mm 0 W/m2
18:27 46.2 °F /  7.9 °C 45.1 °F /  7.3 °C 30in /  1014.9hPa Calm     96% 0in /  0.0mm 0 W/m2
18:32 46 °F /  7.8 °C 45 °F /  7.2 °C 30in /  1014.9hPa Calm     96% 0in /  0.0mm 0 W/m2
18:37 46 °F /  7.8 °C 45.3 °F /  7.4 °C 30in /  1014.9hPa Calm     97% 0in /  0.0mm 0 W/m2
18:42 45.9 °F /  7.7 °C 45.1 °F /  7.3 °C 30in /  1014.9hPa Calm   2mph /  3.2km/h 97% 0in /  0.0mm 0 W/m2
18:47 45.9 °F /  7.7 °C 45.1 °F /  7.3 °C 30in /  1014.9hPa Calm   1mph /  1.6km/h 97% 0in /  0.0mm 0 W/m2
18:52 45.9 °F /  7.7 °C 45.1 °F /  7.3 °C 30in /  1014.9hPa Calm   2mph /  3.2km/h 97% 0in /  0.0mm 0 W/m2
18:57 45.9 °F /  7.7 °C 45.1 °F /  7.3 °C 30in /  1014.9hPa Calm     97% 0in /  0.0mm 0 W/m2
19:14 45.7 °F /  7.6 °C 45 °F /  7.2 °C 30in /  1014.9hPa Calm     97% 0in /  0.0mm 0 W/m2
19:19 45.5 °F /  7.5 °C 44.8 °F /  7.1 °C 30in /  1014.9hPa Calm   1mph /  1.6km/h 97% 0in /  0.0mm 0 W/m2
19:24 45.3 °F /  7.4 °C 44.6 °F /  7 °C 30in /  1014.9hPa Calm     97% 0in /  0.0mm 0 W/m2
19:29 45.3 °F /  7.4 °C 44.6 °F /  7 °C 30in /  1015.2hPa Calm     97% 0in /  0.0mm 0 W/m2
19:34 45.3 °F /  7.4 °C 44.6 °F /  7 °C 30in /  1014.9hPa ENE 0.9mph /  1.4km/h 2mph /  3.2km/h 97% 0in /  0.0mm 0 W/m2
19:39 45.5 °F /  7.5 °C 44.8 °F /  7.1 °C 30in /  1015.2hPa Calm     97% 0in /  0.0mm 0 W/m2
19:44 45.5 °F /  7.5 °C 44.8 °F /  7.1 °C 30in /  1015.2hPa Calm     97% 0in /  0.0mm 0 W/m2
19:49 45.7 °F /  7.6 °C 45 °F /  7.2 °C 30in /  1014.9hPa Calm     97% 0in /  0.0mm 0 W/m2
19:54 45.7 °F /  7.6 °C 45 °F /  7.2 °C 30in /  1014.9hPa Calm     97% 0in /  0.0mm 0 W/m2
19:59 45.9 °F /  7.7 °C 45.1 °F /  7.3 °C 30in /  1014.9hPa Calm     97% 0in /  0.0mm 0 W/m2
20:04 45.7 °F /  7.6 °C 45 °F /  7.2 °C 30in /  1014.9hPa Calm     97% 0in /  0.0mm 0 W/m2
20:09 45.7 °F /  7.6 °C 45 °F /  7.2 °C 30in /  1014.9hPa Calm     97% 0in /  0.0mm 0 W/m2
20:14 45.7 °F /  7.6 °C 45 °F /  7.2 °C 30in /  1014.9hPa Calm     97% 0in /  0.0mm 0 W/m2
20:34 45.3 °F /  7.4 °C 44.6 °F /  7 °C 30in /  1014.9hPa Calm     97% 0in /  0.0mm 0 W/m2
20:39 45.1 °F /  7.3 °C 44.4 °F /  6.9 °C 30in /  1014.9hPa Calm     97% 0in /  0.0mm 0 W/m2
20:44 45.1 °F /  7.3 °C 44.4 °F /  6.9 °C 30in /  1014.9hPa Calm     97% 0in /  0.0mm 0 W/m2
20:49 45.1 °F /  7.3 °C 44.4 °F /  6.9 °C 30in /  1014.9hPa Calm     97% 0in /  0.0mm 0 W/m2
20:54 45 °F /  7.2 °C 44.2 °F /  6.8 °C 30in /  1015.2hPa Calm     97% 0in /  0.0mm 0 W/m2
20:59 45 °F /  7.2 °C 44.2 °F /  6.8 °C 30in /  1015.2hPa Calm     97% 0in /  0.0mm 0 W/m2
21:04 44.8 °F /  7.1 °C 44.1 °F /  6.7 °C 30in /  1015.2hPa Calm     97% 0in /  0.0mm 0 W/m2
21:09 44.8 °F /  7.1 °C 44.1 °F /  6.7 °C 30in /  1015.2hPa Calm     97% 0in /  0.0mm 0 W/m2
21:14 44.8 °F /  7.1 °C 44.1 °F /  6.7 °C 30in /  1015.2hPa Calm     97% 0in /  0.0mm 0 W/m2
21:19 44.6 °F /  7 °C 43.9 °F /  6.6 °C 30in /  1015.2hPa Calm     97% 0in /  0.0mm 0 W/m2
21:24 44.4 °F /  6.9 °C 43.7 °F /  6.5 °C 30in /  1015.2hPa Calm     97% 0in /  0.0mm 0 W/m2
21:29 44.4 °F /  6.9 °C 43.7 °F /  6.5 °C 30in /  1015.2hPa Calm     97% 0in /  0.0mm 0 W/m2
21:34 44.4 °F /  6.9 °C 43.7 °F /  6.5 °C 30in /  1015.2hPa Calm     97% 0in /  0.0mm 0 W/m2
21:39 44.4 °F /  6.9 °C 43.7 °F /  6.5 °C 30in /  1015.6hPa Calm     97% 0in /  0.0mm 0 W/m2
21:44 44.2 °F /  6.8 °C 43.5 °F /  6.4 °C 30in /  1015.6hPa Calm     97% 0in /  0.0mm 0 W/m2
21:49 44.2 °F /  6.8 °C 43.5 °F /  6.4 °C 30in /  1015.2hPa Calm     97% 0in /  0.0mm 0 W/m2
21:54 44.1 °F /  6.7 °C 43.3 °F /  6.3 °C 30in /  1015.2hPa Calm     97% 0in /  0.0mm 0 W/m2
21:59 44.1 °F /  6.7 °C 43.3 °F /  6.3 °C 30in /  1015.2hPa Calm     97% 0in /  0.0mm 0 W/m2
22:04 44.1 °F /  6.7 °C 43.3 °F /  6.3 °C 30in /  1015.2hPa Calm     97% 0in /  0.0mm 0 W/m2
22:09 43.9 °F /  6.6 °C 43.2 °F /  6.2 °C 30in /  1015.2hPa Calm     97% 0in /  0.0mm 0 W/m2
22:14 43.9 °F /  6.6 °C 43.2 °F /  6.2 °C 30in /  1015.6hPa Calm     97% 0in /  0.0mm 0 W/m2
22:19 43.9 °F /  6.6 °C 43.2 °F /  6.2 °C 30in /  1015.2hPa Calm     97% 0in /  0.0mm 0 W/m2
22:39 43.9 °F /  6.6 °C 43.2 °F /  6.2 °C 30in /  1015.6hPa Calm     97% 0in /  0.0mm 0 W/m2
22:44 43.9 °F /  6.6 °C 43.2 °F /  6.2 °C 30in /  1015.6hPa Calm     97% 0in /  0.0mm 0 W/m2
22:49 43.7 °F /  6.5 °C 43 °F /  6.1 °C 30in /  1015.6hPa Calm     97% 0in /  0.0mm 0 W/m2
22:54 43.5 °F /  6.4 °C 42.8 °F /  6 °C 30in /  1015.6hPa Calm     97% 0in /  0.0mm 0 W/m2
22:59 43.5 °F /  6.4 °C 42.8 °F /  6 °C 30in /  1015.6hPa Calm     97% 0in /  0.0mm 0 W/m2
23:04 43.5 °F /  6.4 °C 42.8 °F /  6 °C 30in /  1015.6hPa Calm     97% 0in /  0.0mm 0 W/m2
23:09 43.5 °F /  6.4 °C 42.8 °F /  6 °C 30in /  1015.6hPa Calm     97% 0in /  0.0mm 0 W/m2
23:14 43.3 °F /  6.3 °C 42.6 °F /  5.9 °C 30in /  1015.6hPa Calm     97% 0in /  0.0mm 0 W/m2
23:19 43.2 °F /  6.2 °C 42.4 °F /  5.8 °C 30in /  1015.6hPa Calm     97% 0in /  0.0mm 0 W/m2
23:24 43.2 °F /  6.2 °C 42.4 °F /  5.8 °C 30in /  1015.6hPa Calm     97% 0in /  0.0mm 0 W/m2
23:29 43 °F /  6.1 °C 42.3 °F /  5.7 °C 30in /  1015.6hPa Calm     97% 0in /  0.0mm 0 W/m2
23:34 42.8 °F /  6 °C 42.1 °F /  5.6 °C 30in /  1015.6hPa Calm     97% 0in /  0.0mm 0 W/m2
23:39 42.6 °F /  5.9 °C 41.9 °F /  5.5 °C 30in /  1015.6hPa Calm     97% 0in /  0.0mm 0 W/m2
23:44 42.4 °F /  5.8 °C 41.7 °F /  5.4 °C 30in /  1015.6hPa Calm     97% 0in /  0.0mm 0 W/m2
23:49 42.3 °F /  5.7 °C 41.5 °F /  5.3 °C 30in /  1015.6hPa Calm     97% 0in /  0.0mm 0 W/m2
23:54 42.3 °F /  5.7 °C 41.5 °F /  5.3 °C 30in /  1015.6hPa Calm     97% 0in /  0.0mm 0 W/m2
23:59 42.3 °F /  5.7 °C 41.5 °F /  5.3 °C 30in /  1015.6hPa Calm     97% 0in /  0.0mm 0 W/m2
Juneau County Weather
Compliments of Weather Underground - 2 mb